Terminal Aerodrome Forecast
Issued by NWS Louisville, KY

Home | Current Version | Previous Version | Text Only | Print | Product List | Glossary On
Versions: 1 2 3 4 5 6 7 8 9 10 11 12 13 14 15 16 17
932
FTUS43 KLMK 291122
TAFSDF
TAF
KSDF 291122Z 2912/3018 16009KT P6SM -RA VCTS BKN035CB OVC060
      TEMPO 2912/2914 VRB15G30KT 3SM -TSRA BR BKN035CB
     FM291600 19013G23KT P6SM SCT040
     FM300000 16008KT P6SM BKN250=

USA.gov is the U.S. government's official web portal to all federal, state and local government web resources and services.